createdAt,value
2019-02-19T00:07:35.226Z,12.41
2019-02-19T00:10:34.414Z,12.37
2019-02-19T00:45:31.054Z,12.40
2019-02-19T00:48:33.633Z,12.21
2019-02-19T00:51:33.310Z,11.98
2019-02-19T00:54:32.760Z,12.05
2019-02-19T00:57:31.921Z,12.06
2019-02-19T01:06:44.277Z,11.84
2019-02-19T01:09:34.686Z,11.83
2019-02-19T01:12:34.050Z,11.92
2019-02-19T01:15:33.212Z,13.14
2019-02-19T01:18:32.570Z,12.77
2019-02-19T01:21:32.155Z,12.57
2019-02-19T01:24:31.443Z,12.58
2019-02-19T01:27:33.844Z,13.04
2019-02-19T01:42:32.946Z,12.64
2019-02-19T01:45:34.177Z,12.69
2019-02-19T01:48:12.035Z,12.70
2019-02-19T01:50:41.327Z,12.62
2019-02-19T01:53:10.573Z,12.65
2019-02-19T01:55:39.840Z,12.56
2019-02-19T01:58:09.080Z,12.45
2019-02-19T02:00:38.452Z,12.95
2019-02-19T02:03:07.750Z,12.72
2019-02-19T02:05:37.080Z,12.81
2019-02-19T02:08:06.329Z,12.77
2019-02-19T02:10:35.647Z,12.76
2019-02-19T02:13:04.880Z,12.78
2019-02-19T02:15:42.286Z,13.03
2019-02-19T02:18:05.288Z,12.57
2019-02-19T02:20:34.596Z,12.87
2019-02-19T02:23:03.860Z,12.70
2019-02-19T02:25:33.156Z,12.65
2019-02-19T02:28:02.391Z,12.82
2019-02-19T02:30:31.660Z,12.79
2019-02-19T02:33:00.939Z,12.63
2019-02-19T02:35:30.241Z,12.85
2019-02-19T02:37:59.589Z,12.60
2019-02-19T02:40:28.995Z,12.66
2019-02-19T02:42:58.290Z,12.60
2019-02-19T02:45:27.578Z,12.18
2019-02-19T02:47:56.851Z,12.64
2019-02-19T02:50:26.135Z,12.15
2019-02-19T02:52:55.397Z,12.59
2019-02-19T02:55:24.657Z,12.54
2019-02-19T02:57:53.949Z,12.52
2019-02-19T03:00:23.378Z,12.35
2019-02-19T03:02:52.622Z,12.48
2019-02-19T03:05:21.860Z,12.72
2019-02-19T03:07:54.489Z,12.50
2019-02-19T03:10:23.821Z,12.22
2019-02-19T03:12:53.091Z,12.44
2019-02-19T03:15:22.354Z,12.63
2019-02-19T03:17:51.652Z,12.55
2019-02-19T03:20:20.943Z,12.38
2019-02-19T03:22:50.213Z,12.12
2019-02-19T03:25:19.463Z,12.29
2019-02-19T03:27:48.769Z,12.66
2019-02-19T03:30:18.168Z,12.56
2019-02-19T03:32:47.506Z,12.39
2019-02-19T03:35:16.749Z,12.23
2019-02-19T03:37:46.033Z,12.32
2019-02-19T03:40:15.332Z,12.34
2019-02-19T03:42:44.575Z,12.67
2019-02-19T03:45:13.831Z,12.57
2019-02-19T03:47:43.086Z,12.54
2019-02-19T03:50:12.325Z,12.49
2019-02-19T03:52:41.778Z,12.51
2019-02-19T03:55:11.038Z,12.52
2019-02-19T03:57:40.463Z,12.42
2019-02-19T04:00:09.921Z,12.53
2019-02-19T04:02:39.164Z,12.06
2019-02-19T04:05:08.566Z,11.78
2019-02-19T04:07:37.819Z,11.68
2019-02-19T04:10:08.119Z,11.85
2019-02-19T04:12:37.395Z,11.54
2019-02-19T04:15:07.791Z,12.08
2019-02-19T04:17:37.086Z,12.10
2019-02-19T04:20:06.985Z,12.05
2019-02-19T04:22:36.306Z,11.90
2019-02-19T04:25:05.673Z,12.14
2019-02-19T04:27:35.003Z,11.99
2019-02-19T04:30:04.909Z,12.00
2019-02-19T04:32:34.147Z,12.20
2019-02-19T04:35:03.480Z,11.98
2019-02-19T04:37:32.717Z,12.18
2019-02-19T04:40:02.036Z,11.99
2019-02-19T04:42:31.277Z,11.72
2019-02-19T04:45:00.583Z,12.00
2019-02-19T04:47:29.838Z,12.19
2019-02-19T04:49:59.141Z,11.74
2019-02-19T04:52:28.414Z,12.16
2019-02-19T04:54:57.670Z,12.19
2019-02-19T04:57:26.942Z,12.23
2019-02-19T04:59:56.218Z,11.84
2019-02-19T05:02:25.525Z,11.98
2019-02-19T05:04:54.849Z,12.04
2019-02-19T05:07:24.146Z,11.92
2019-02-19T05:09:53.404Z,12.11
2019-02-19T05:12:22.701Z,12.07
2019-02-19T05:14:51.973Z,12.04
2019-02-19T05:17:21.486Z,12.05
2019-02-19T05:19:50.768Z,12.20
2019-02-19T05:22:20.129Z,11.97
2019-02-19T05:24:49.434Z,11.81
2019-02-19T05:27:18.736Z,12.02
2019-02-19T05:29:48.053Z,11.70
2019-02-19T05:32:17.355Z,11.93
2019-02-19T05:34:46.624Z,11.81
2019-02-19T05:37:15.933Z,11.53
2019-02-19T05:39:45.227Z,11.77
2019-02-19T05:42:14.523Z,11.71
2019-02-19T05:44:43.840Z,11.47
2019-02-19T05:47:13.125Z,11.39
2019-02-19T05:49:43.805Z,11.71
2019-02-19T05:52:13.082Z,11.85
2019-02-19T05:54:42.299Z,11.55
2019-02-19T05:57:11.566Z,11.95
2019-02-19T05:59:40.917Z,11.87
2019-02-19T06:02:10.227Z,11.53
2019-02-19T06:04:39.475Z,11.68
2019-02-19T06:07:08.752Z,11.91
2019-02-19T06:09:38.011Z,11.63
2019-02-19T06:12:07.267Z,11.94
2019-02-19T06:14:36.492Z,12.06
2019-02-19T06:17:05.738Z,12.44
2019-02-19T06:19:35.021Z,12.33
2019-02-19T06:22:04.289Z,12.08
2019-02-19T06:24:33.492Z,12.06
2019-02-19T06:27:02.782Z,11.98
2019-02-19T06:29:32.059Z,11.78
2019-02-19T06:32:01.324Z,11.60
2019-02-19T06:34:30.621Z,11.58
2019-02-19T06:36:59.903Z,11.78
2019-02-19T06:39:29.173Z,11.77
2019-02-19T06:41:58.422Z,12.10
2019-02-19T06:44:27.686Z,11.87
2019-02-19T06:46:56.901Z,12.15
2019-02-19T06:49:26.270Z,12.19
2019-02-19T06:51:55.634Z,13.28
2019-02-19T06:54:24.908Z,12.91
2019-02-19T06:56:54.135Z,12.81
2019-02-19T06:59:23.400Z,12.55
2019-02-19T07:02:11.567Z,12.19
2019-02-19T07:04:46.319Z,12.14
2019-02-19T07:07:15.548Z,12.15
2019-02-19T07:09:44.798Z,12.16
2019-02-19T07:12:14.047Z,11.87
2019-02-19T07:14:43.332Z,11.64
2019-02-19T07:17:15.758Z,11.71
2019-02-19T07:19:43.587Z,11.96
2019-02-19T07:22:12.845Z,11.82
2019-02-19T07:24:42.095Z,11.81
2019-02-19T07:27:11.337Z,11.69
2019-02-19T07:29:40.587Z,11.82
2019-02-19T07:32:09.813Z,11.98
2019-02-19T07:34:40.953Z,11.69
2019-02-19T07:37:10.091Z,11.88
2019-02-19T07:39:39.381Z,11.57
2019-02-19T07:42:08.734Z,11.49
2019-02-19T07:44:37.985Z,11.47
2019-02-19T07:47:07.209Z,11.15
2019-02-19T07:49:36.480Z,11.10
2019-02-19T07:52:05.718Z,10.92
2019-02-19T07:54:34.971Z,11.29
2019-02-19T07:57:04.297Z,11.18
2019-02-19T07:59:33.572Z,11.39
2019-02-19T08:02:02.795Z,11.16
2019-02-19T08:04:32.028Z,11.02
2019-02-19T08:07:01.294Z,11.22
2019-02-19T08:09:30.499Z,10.99
2019-02-19T08:11:59.759Z,11.63
2019-02-19T08:14:28.991Z,11.56
2019-02-19T08:16:58.240Z,11.75
2019-02-19T08:19:27.505Z,11.80
2019-02-19T08:21:56.781Z,11.80
2019-02-19T08:24:26.042Z,11.90
2019-02-19T08:26:55.275Z,11.89
2019-02-19T08:29:24.587Z,12.14
2019-02-19T08:31:53.861Z,11.95
2019-02-19T08:34:23.078Z,12.44
2019-02-19T08:36:52.372Z,12.28
2019-02-19T08:39:21.640Z,12.22
2019-02-19T08:41:50.886Z,12.73
2019-02-19T08:44:20.120Z,12.10
2019-02-19T08:46:49.396Z,12.78
2019-02-19T08:49:18.630Z,12.33
2019-02-19T08:51:55.873Z,12.56
2019-02-19T08:54:18.886Z,13.14
2019-02-19T08:56:48.144Z,13.60
2019-02-19T08:59:17.416Z,13.09
2019-02-19T09:01:46.646Z,13.50
2019-02-19T09:04:15.916Z,13.75
2019-02-19T09:06:45.175Z,13.37
2019-02-19T09:09:14.434Z,12.99
2019-02-19T09:11:43.748Z,13.33
2019-02-19T09:14:13.037Z,12.99
2019-02-19T09:16:42.292Z,12.95
2019-02-19T09:19:11.598Z,13.08
2019-02-19T09:21:40.878Z,13.19
2019-02-19T09:24:10.126Z,12.36
2019-02-19T09:26:39.401Z,13.01
2019-02-19T09:29:08.653Z,12.93
2019-02-19T09:31:37.894Z,12.98
2019-02-19T09:34:07.257Z,13.35
2019-02-19T09:36:36.522Z,12.99
2019-02-19T09:39:06.485Z,13.45
2019-02-19T09:41:35.874Z,13.22
2019-02-19T09:44:05.126Z,13.44
2019-02-19T09:46:34.422Z,13.25
2019-02-19T09:49:03.700Z,13.38
2019-02-19T09:51:32.958Z,13.40
2019-02-19T09:54:02.235Z,13.48
2019-02-19T09:56:31.543Z,13.93
2019-02-19T09:59:00.837Z,13.93
2019-02-19T10:01:30.098Z,14.31
2019-02-19T10:03:59.329Z,13.86
2019-02-19T10:06:28.566Z,14.09
2019-02-19T10:08:57.809Z,13.93
2019-02-19T10:11:27.105Z,14.13
2019-02-19T10:13:56.362Z,14.82
2019-02-19T10:16:25.602Z,14.86
2019-02-19T10:18:54.944Z,14.27
2019-02-19T10:21:24.359Z,13.97
2019-02-19T10:23:53.639Z,14.19
2019-02-19T10:26:22.991Z,14.02
2019-02-19T10:28:52.245Z,13.76
2019-02-19T10:31:21.532Z,14.29
2019-02-19T10:33:50.789Z,14.04
2019-02-19T10:36:20.180Z,14.50
2019-02-19T10:38:49.443Z,14.23
2019-02-19T10:41:18.704Z,14.40
2019-02-19T10:43:47.943Z,14.59
2019-02-19T10:46:17.243Z,14.60
2019-02-19T10:48:46.641Z,14.55
2019-02-19T10:51:15.907Z,14.51
2019-02-19T10:53:45.144Z,14.40
2019-02-19T10:56:14.436Z,14.75
2019-02-19T10:58:43.727Z,14.59
2019-02-19T11:01:13.011Z,14.41
2019-02-19T11:03:42.282Z,14.18
2019-02-19T11:06:11.574Z,14.73
2019-02-19T11:08:40.896Z,15.33
2019-02-19T11:11:10.174Z,14.75
2019-02-19T11:13:39.410Z,14.72
2019-02-19T11:16:08.767Z,15.06
2019-02-19T11:18:38.038Z,14.90
2019-02-19T11:21:07.358Z,15.20
2019-02-19T11:23:36.619Z,14.34
2019-02-19T11:26:05.839Z,14.67
2019-02-19T11:28:35.116Z,15.07
2019-02-19T11:31:04.351Z,14.73
2019-02-19T11:33:33.637Z,15.29
2019-02-19T11:36:02.928Z,15.12
2019-02-19T11:38:32.207Z,14.95
2019-02-19T11:41:01.471Z,14.56
2019-02-19T11:43:30.718Z,14.67
2019-02-19T11:46:00.016Z,15.08
2019-02-19T11:48:36.811Z,15.04
2019-02-19T11:51:00.251Z,15.13
2019-02-19T11:53:29.556Z,14.91
2019-02-19T11:55:58.883Z,15.03
2019-02-19T11:58:28.177Z,15.31
2019-02-19T12:00:57.447Z,14.93
2019-02-19T12:03:26.790Z,15.45
2019-02-19T12:05:56.065Z,15.30
2019-02-19T12:08:25.329Z,15.18
2019-02-19T12:10:54.588Z,15.10
2019-02-19T12:13:23.862Z,15.16
2019-02-19T12:15:54.305Z,15.00
2019-02-19T12:18:23.585Z,15.48
2019-02-19T12:20:52.868Z,15.25
2019-02-19T12:23:22.127Z,15.77
2019-02-19T12:25:51.362Z,16.16
2019-02-19T12:28:20.612Z,16.32
2019-02-19T12:30:49.910Z,15.95
2019-02-19T12:33:19.124Z,16.07
2019-02-19T12:35:48.407Z,15.74
2019-02-19T12:38:17.805Z,16.38
2019-02-19T12:40:47.071Z,16.05
2019-02-19T12:43:16.448Z,16.16
2019-02-19T12:45:45.786Z,15.91
2019-02-19T12:48:15.115Z,16.05
2019-02-19T12:50:44.393Z,16.08
2019-02-19T12:53:13.674Z,15.94
2019-02-19T12:55:43.752Z,15.56
2019-02-19T12:58:13.011Z,15.23
2019-02-19T13:00:42.286Z,15.92
2019-02-19T13:03:11.560Z,15.89
2019-02-19T13:05:40.835Z,15.27
2019-02-19T13:08:10.086Z,14.87
2019-02-19T13:10:39.347Z,15.53
2019-02-19T13:13:08.675Z,15.55
2019-02-19T13:15:37.974Z,15.58
2019-02-19T13:18:07.247Z,15.52
2019-02-19T13:20:36.530Z,15.54
2019-02-19T13:23:05.820Z,15.32
2019-02-19T13:25:35.071Z,15.43
2019-02-19T13:28:04.363Z,15.63
2019-02-19T13:30:33.636Z,15.64
2019-02-19T13:33:02.948Z,15.85
2019-02-19T13:35:32.238Z,15.60
2019-02-19T13:38:01.482Z,15.74
2019-02-19T13:40:30.732Z,15.29
2019-02-19T13:42:59.987Z,15.11
2019-02-19T13:45:29.254Z,15.18
2019-02-19T13:48:05.710Z,15.65
2019-02-19T13:50:29.600Z,14.95
2019-02-19T13:53:23.883Z,15.03
2019-02-19T13:55:55.626Z,15.09
2019-02-19T13:58:24.934Z,15.41
2019-02-19T14:00:54.360Z,15.84
2019-02-19T14:03:23.676Z,15.86
2019-02-19T14:05:52.921Z,15.48
2019-02-19T14:08:22.265Z,15.70
2019-02-19T14:10:51.521Z,16.00
2019-02-19T14:13:21.036Z,15.77
2019-02-19T14:16:06.622Z,15.72
2019-02-19T14:18:50.840Z,15.30
2019-02-19T14:21:39.033Z,15.16
2019-02-19T14:24:26.263Z,15.17
2019-02-19T14:27:14.463Z,15.52
2019-02-19T14:30:17.838Z,14.98
2019-02-19T14:33:20.569Z,15.25
2019-02-19T14:36:14.307Z,15.50
2019-02-19T14:39:20.862Z,15.52
2019-02-19T14:42:03.198Z,15.68
2019-02-19T14:44:50.206Z,15.36
2019-02-19T14:47:46.062Z,15.30
2019-02-19T14:50:40.360Z,15.56
2019-02-19T14:53:29.389Z,15.81
2019-02-19T14:56:38.345Z,15.42
2019-02-19T14:59:16.535Z,15.17
2019-02-19T15:02:07.635Z,15.48
2019-02-19T15:04:59.821Z,15.42
2019-02-19T15:07:50.250Z,14.81
2019-02-19T15:10:47.829Z,15.16
2019-02-19T15:13:36.053Z,15.45
2019-02-19T15:16:15.736Z,15.68
2019-02-19T15:19:02.743Z,15.91
2019-02-19T15:21:44.365Z,15.98
2019-02-19T15:24:32.622Z,15.19
2019-02-19T15:27:23.653Z,15.64
2019-02-19T15:30:21.295Z,15.47
2019-02-19T15:33:15.741Z,15.20
2019-02-19T15:36:02.915Z,15.70
2019-02-19T15:39:09.727Z,16.17
2019-02-19T15:42:03.993Z,15.73
2019-02-19T15:45:01.313Z,16.08
2019-02-19T15:47:54.362Z,16.61
2019-02-19T15:50:41.098Z,15.76
2019-02-19T15:53:41.454Z,15.79
2019-02-19T15:56:23.765Z,15.89
2019-02-19T15:59:02.068Z,15.65
2019-02-19T16:01:53.404Z,15.23
2019-02-19T16:04:29.167Z,15.37
2019-02-19T16:07:09.549Z,15.13
2019-02-19T16:09:47.375Z,15.21
2019-02-19T16:12:35.601Z,15.35
2019-02-19T16:15:26.415Z,15.32
2019-02-19T16:18:14.670Z,15.35
2019-02-19T16:21:02.989Z,15.01
2019-02-19T16:24:03.228Z,15.13
2019-02-19T16:26:50.206Z,14.80
2019-02-19T16:29:39.301Z,14.10
2019-02-19T16:32:30.558Z,14.30
2019-02-19T16:35:18.895Z,14.50
2019-02-19T16:38:10.210Z,14.56
2019-02-19T16:41:04.493Z,14.86
2019-02-19T16:43:49.199Z,14.14
2019-02-19T16:46:37.466Z,13.87
2019-02-19T16:49:31.672Z,14.81
2019-02-19T16:52:08.007Z,14.52
2019-02-19T16:58:17.725Z,13.82
2019-02-19T17:01:08.241Z,13.92
2019-02-19T17:03:54.319Z,13.77
2019-02-19T17:06:35.654Z,13.45
2019-02-19T17:09:27.977Z,13.55
2019-02-19T17:12:18.640Z,13.45
2019-02-19T17:15:09.856Z,13.36
2019-02-19T17:18:07.280Z,13.39
2019-02-19T17:20:54.612Z,13.36
2019-02-19T17:23:55.248Z,13.24
2019-02-19T17:26:46.660Z,12.90
2019-02-19T17:29:33.771Z,12.98
2019-02-19T17:32:22.951Z,12.83
2019-02-19T17:35:18.673Z,12.80
2019-02-19T17:38:14.632Z,12.72
2019-02-19T17:40:47.860Z,12.97
2019-02-19T17:43:23.319Z,12.72
2019-02-19T17:46:23.709Z,12.70
2019-02-19T17:49:20.783Z,12.70
2019-02-19T17:52:13.956Z,12.60
2019-02-19T17:55:13.498Z,12.48
2019-02-19T17:58:04.546Z,12.42
2019-02-19T18:00:46.729Z,12.38
2019-02-19T18:03:34.993Z,12.37
2019-02-19T18:06:32.186Z,12.24
2019-02-19T18:09:20.404Z,12.46
2019-02-19T18:12:11.832Z,12.53
2019-02-19T18:14:59.001Z,12.62
2019-02-19T18:17:37.371Z,12.42
2019-02-19T18:20:10.402Z,12.40
2019-02-19T18:22:39.881Z,12.26
2019-02-19T18:25:09.318Z,12.31
2019-02-19T18:27:38.730Z,12.21
2019-02-19T18:30:08.419Z,12.33
2019-02-19T18:32:37.782Z,12.41
2019-02-19T18:35:07.642Z,11.98
2019-02-19T18:37:37.062Z,12.23
2019-02-19T18:40:06.510Z,12.20
2019-02-19T18:42:35.820Z,11.95
2019-02-19T18:45:05.485Z,12.02
2019-02-19T18:47:34.782Z,11.94
2019-02-19T18:50:04.433Z,11.83
2019-02-19T18:52:33.810Z,11.93
2019-02-19T18:55:03.384Z,11.89
2019-02-19T18:57:32.727Z,11.81
2019-02-19T19:00:02.158Z,11.93
2019-02-19T19:02:31.461Z,12.02
2019-02-19T19:05:00.808Z,11.68
2019-02-19T19:07:30.123Z,11.75
2019-02-19T19:09:59.459Z,11.76
2019-02-19T19:12:28.809Z,11.80
2019-02-19T19:14:58.281Z,11.57
2019-02-19T19:17:27.605Z,11.60
2019-02-19T19:19:57.040Z,11.79
2019-02-19T19:22:26.391Z,11.72
2019-02-19T19:24:56.392Z,11.61
2019-02-19T19:27:25.765Z,11.41
2019-02-19T19:30:00.875Z,11.52
2019-02-19T19:32:30.193Z,11.78
2019-02-19T19:34:59.575Z,11.65
2019-02-19T19:37:29.899Z,11.54
2019-02-19T19:39:59.283Z,11.65
2019-02-19T19:42:28.676Z,11.64
2019-02-19T19:44:58.078Z,11.60
2019-02-19T19:47:27.564Z,11.68
2019-02-19T19:49:56.933Z,11.60
2019-02-19T19:52:26.306Z,11.57
2019-02-19T19:54:55.852Z,11.62
2019-02-19T19:57:25.365Z,11.49
2019-02-19T19:59:54.761Z,11.53
2019-02-19T20:02:24.233Z,11.48
2019-02-19T20:04:53.567Z,11.44
2019-02-19T20:07:22.995Z,11.37
2019-02-19T20:09:52.302Z,11.18
2019-02-19T20:12:21.797Z,11.33
2019-02-19T20:14:51.159Z,11.16
2019-02-19T20:17:20.718Z,11.15
2019-02-19T20:19:50.108Z,11.14
2019-02-19T20:22:19.607Z,11.33
2019-02-19T20:24:48.994Z,11.27
2019-02-19T20:27:18.390Z,11.29
2019-02-19T20:29:47.740Z,11.26
2019-02-19T20:32:17.227Z,11.18
2019-02-19T20:34:46.605Z,11.04
2019-02-19T20:37:16.061Z,11.22
2019-02-19T20:39:45.339Z,11.03
2019-02-19T20:42:14.699Z,11.06
2019-02-19T20:45:31.879Z,11.21
2019-02-19T20:56:31.598Z,11.13
2019-02-19T21:09:10.395Z,11.11
2019-02-19T21:11:39.713Z,10.96
2019-02-19T21:14:09.150Z,11.01
2019-02-19T21:16:38.541Z,11.00
2019-02-19T21:19:08.059Z,11.12
2019-02-19T21:21:44.721Z,11.29
2019-02-19T21:24:08.567Z,11.39
2019-02-19T21:26:38.020Z,11.56
2019-02-19T21:29:07.337Z,11.56
2019-02-19T21:31:36.735Z,11.48
2019-02-19T21:34:06.086Z,11.59
2019-02-19T21:36:35.522Z,11.52
2019-02-19T21:39:06.483Z,11.56
2019-02-19T21:41:35.851Z,11.47
2019-02-19T21:44:05.257Z,11.36
2019-02-19T21:46:34.610Z,11.04
2019-02-19T21:49:04.058Z,11.06
2019-02-19T21:51:33.439Z,11.06
2019-02-19T21:54:02.767Z,10.91
2019-02-19T21:56:32.121Z,10.93
2019-02-19T21:59:01.554Z,10.88
2019-02-19T22:01:30.989Z,10.80
2019-02-19T22:04:00.325Z,10.94
2019-02-19T22:06:29.706Z,10.79
2019-02-19T22:08:59.050Z,10.90
2019-02-19T22:11:28.377Z,10.96
2019-02-19T22:13:57.732Z,10.90
2019-02-19T22:16:27.087Z,10.79
2019-02-19T22:18:56.387Z,10.75
2019-02-19T22:21:44.817Z,10.79
2019-02-19T22:24:14.186Z,10.66
2019-02-19T22:26:43.513Z,10.62
2019-02-19T22:29:12.838Z,10.53
2019-02-19T22:31:42.173Z,10.54
2019-02-19T22:34:11.506Z,10.36
2019-02-19T22:36:40.852Z,10.10
2019-02-19T22:39:10.266Z,10.40
2019-02-19T22:41:39.600Z,10.34
2019-02-19T22:44:08.951Z,10.18
2019-02-19T22:46:38.263Z,10.21
2019-02-19T22:49:07.566Z,10.19
2019-02-19T22:51:36.901Z,10.26
2019-02-19T22:54:11.152Z,10.23
2019-02-19T22:56:42.372Z,10.19
2019-02-19T22:59:11.672Z,10.34
2019-02-19T23:01:46.238Z,10.24
2019-02-19T23:04:15.734Z,10.39
2019-02-19T23:06:45.061Z,10.34
2019-02-19T23:09:14.841Z,10.32
2019-02-19T23:11:44.142Z,10.14
2019-02-19T23:14:13.423Z,10.09
2019-02-19T23:16:42.719Z,9.79
2019-02-19T23:19:12.104Z,9.96
2019-02-19T23:21:41.417Z,9.90
2019-02-19T23:24:10.749Z,9.92
2019-02-19T23:26:40.047Z,9.82
2019-02-19T23:29:09.373Z,10.05
2019-02-19T23:31:38.684Z,9.91
2019-02-19T23:34:08.057Z,9.93
2019-02-19T23:36:59.210Z,9.87
2019-02-19T23:39:28.547Z,10.03
2019-02-19T23:41:57.930Z,9.87
2019-02-19T23:44:27.240Z,9.59
2019-02-19T23:46:56.564Z,9.64
2019-02-19T23:49:25.853Z,9.52
2019-02-19T23:51:58.176Z,9.60
2019-02-19T23:54:27.652Z,9.68
2019-02-19T23:56:57.143Z,9.73
2019-02-19T23:59:26.579Z,9.68
